Tiempo atmosférico en la estación meteorológica de Carrión De Los Condes, Palencia (830 m.)

Fecha
DESCASC
Temp. máxima en grados centígrados (hora)
DESCASC
Temp. mínima en grados centígrados (hora)
DESCASC
Temp. media en grados centígrados
DESCASC
Racha de viento máxima en m/sg (hora)
DESCASC
Velocidad máxima media en intervalos de 10 minutos(hora)
DESCASC
Precipitaciones diarias en mm
DESCASC
Precipitaciones de 00:00 a 06:00 en mm
DESCASC
Precipitaciones de 06:00 a 12:00 en mm
DESCASC
Precipitaciones de 12:00 a 18:00 en mm
DESCASC
Precipitaciones de 18:00 a 24:00 en mm
DESCASC
23-11-2017 15.1 (15:40) 6.2 (01:00) 10.7 11.67 (12:10) 5.83 (08:00) 0 0 0 0 0
22-11-2017 16.8 (14:50) -4.5 (06:20) 6.1 8.61 (21:50) 5 (21:10) 0 0 0 0 0
21-11-2017 15.8 (15:10) -5 (08:10) 5.4 5 (14:40) 2.78 (16:10) 0 0 0 0 0
20-11-2017 16.9 (15:30) -3.9 (08:30) 6.5 5.56 (15:00) 2.78 (14:30) 0 0 0 0 0
19-11-2017 17.2 (15:50) -4.4 (-00:0) 6.4 5 (14:10) 2.5 (12:10) 0 0 0 0 0
18-11-2017 15.9 (15:20) 1.5 (00:00) 8.7 8.61 (11:10) 3.61 (01:50) 0 0 0 0 0
17-11-2017 18.2 (15:30) 0 (00:00) 9.1 6.39 (15:00) 2.78 (23:20) 0 0 0 0 0
16-11-2017 18.2 (15:40) -3.3 (-00:0) 7.5 3.89 (21:50) 1.39 (15:50) 0 0 0 0 0
15-11-2017 15 (16:30) -1.7 (-00:0) 6.6 7.22 (00:50) 3.61 (01:30) 0 0 0 0 0
14-11-2017 11.3 (15:40) -0.6 (-00:0) 5.4 10.56 (12:30) 4.44 (12:40) 0 0 0 0 0
13-11-2017 10.1 (13:10) 0.1 (00:00) 5.1 13.06 (11:50) 6.67 (11:40) 0 0 0 0 0
12-11-2017 12 (16:50) -1.3 (-00:0) 5.4 4.44 (16:10) 2.22 (16:20) 0 0 0 0 0
11-11-2017 14.5 (15:10) -1.6 (-00:0) 6.4 5.56 (12:20) 2.78 (12:20) 0 0 0 0 0
10-11-2017 16.1 (15:20) -0.3 (00:00) 7.9 4.44 (13:30) 2.5 (15:00) 0 0 0 0 0
09-11-2017 11.4 (15:30) -3.1 (-00:0) 4.1 7.22 (16:10) 2.78 (16:10) 0 0 0 0 0
08-11-2017 12 (14:30) -1.1 (-00:0) 5.4 12.78 (16:00) 6.67 (16:00) 0 0 0 0 0
07-11-2017 14.3 (16:20) -1.3 (-00:0) 6.5 8.33 (12:40) 3.33 (12:50) 0 0 0 0 0
06-11-2017 12.8 (15:30) -0.9 (-00:0) 6 7.5 (14:10) 3.33 (14:20) 0 0 0 0 0
05-11-2017 12.7 (14:40) 1.2 (00:00) 6.9 12.22 (15:30) 4.44 (16:00) 0 0 0 0 0
04-11-2017 14.4 (14:50) 5.4 (00:00) 9.9 8.33 (17:10) 3.89 (17:20) 17.4 0 13.6 3.6 0.2
03-11-2017 16.1 (15:00) 7 (00:00) 11.6 9.17 (13:40) 5 (13:40) 16.2 14.2 2 0 0
02-11-2017 18.4 (16:10) 4.1 (08:00) 11.2 5.56 (14:10) 2.78 (14:20) 0 0 0 0 0
01-11-2017 19.7 (15:50) -1.7 (-00:0) 9 5.83 (15:20) 2.78 (14:40) 0 0 0 0 0
31-10-2017 17.9 (16:00) -0.5 (-00:0) 8.7 6.67 (00:10) 2.78 (00:10) 0 0 0 0 0
30-10-2017 16.9 (13:40) 1.6 (00:00) 9.2 16.67 (17:20) 5.28 (20:30) 0 0 0 0 0
29-10-2017 19.2 (14:40) 1.2 (00:00) 10.2 12.5 (15:30) 4.44 (16:30) 0 0 0 0 0
28-10-2017 18.5 (16:00) 2.5 (00:00) 10.5 11.67 (18:20) 4.72 (13:30) 0 0 0 0 0
27-10-2017 25.9 (17:00) 3.2 (00:00) 14.5 6.94 (18:20) 3.06 (18:10) 0 0 0 0 0
26-10-2017 24.9 (16:40) 1 (00:00) 12.9 7.78 (16:20) 3.61 (17:00) 0 0 0 0 0
25-10-2017 25.5 (16:40) 1.7 (00:00) 13.6 4.44 (09:30) 1.94 (13:30) 0 0 0 0 0

Gráficas

Temp. máximas Temp. mínimas Temp. medias Precipitaciones Rachas de viento máximas Velocidades máximas media en intervalos de 10 minutos

Datos horarios

Fecha y hora oficial Temperatura (ºC) Velocidad del viento (km/h) Dirección del viento Racha (km/h) Dirección de racha Precipitación (mm) Presión (hPa) Tendencia (hPa) Humedad (%)
2017-11-23 23:00:00 10.4 4 Sudoeste 25 Sudoeste 0 923.1 0.6 56
2017-11-23 22:00:00 11.6 10 Sudoeste 30 Sudoeste 0 922.9 0.9 52
2017-11-23 21:00:00 10.3 5 Sudoeste 24 Sudoeste 0 922.7 1 65
2017-11-23 20:00:00 11 10 Sudoeste 21 Sudoeste 0 922.5 0.9 64
2017-11-23 19:00:00 10.6 7 Oeste 19 Sudoeste 0 922 0.5 72
2017-11-23 18:00:00 12.8 7 Sudoeste 33 Sudoeste 0 921.7 0.2 66
2017-11-23 17:00:00 14.4 13 Sudoeste 35 Sudoeste 0 921.6 -0.2 64
2017-11-23 16:00:00 14.4 14 Sudoeste 30 Sudoeste 0 921.5 -0.2 68
2017-11-23 15:00:00 14.3 10 Sudoeste 30 Sudoeste 0 921.5 -0.1 70
2017-11-23 14:00:00 13 11 Sudoeste 37 Sudoeste 0 921.8 0.2 74
2017-11-23 13:00:00 13.5 16 Sudoeste 42 Sudoeste 0 921.7 1 73
2017-11-23 12:00:00 13.2 17 Sudoeste 39 Sudoeste 0 921.6 1.7 70
2017-11-23 11:00:00 11.7 14 Sudoeste 37 Sudoeste 0 921.6 2.7 72
2017-11-23 10:00:00 11 16 Sudoeste 38 Sudoeste 0 920.7 2.2 68
2017-11-23 09:00:00 9.3 13 Sudoeste 33 Sudoeste 0 919.9 1.5 70
2017-11-23 08:00:00 9.4 21 Sudoeste 36 Sudoeste 0 918.9 1.1 69
2017-11-23 07:00:00 9.2 11 Sudoeste 20 Sudoeste 0 918.5 0.7 68
2017-11-23 06:00:00 9.4 9 Sudoeste 25 Sudoeste 0 918.4 0.9 66
2017-11-23 05:00:00 10.1 11 Sudoeste 23 Sudoeste 0 917.8 0.3 52
2017-11-23 04:00:00 9.3 9 Sudoeste 17 Sudoeste 0 917.8 0 51
2017-11-23 03:00:00 8.4 12 Sudoeste 21 Sudoeste 0 917.5 -0.1 54
2017-11-23 02:00:00 7.3 9 Sudoeste 17 Sudoeste 0 917.5 0.1 59
2017-11-23 01:00:00 6.3 4 Oeste 11 Sudoeste 0 917.8 0.7 61
2017-11-23 00:00:00 9.1 5 Sudoeste 24 Sudoeste 0 917.6 0.9 49
2017-11-22 23:00:00 10.3 11 Sudoeste 30 Sudoeste 0 917.4 0.8 44
2017-11-22 22:00:00 11.1 18 Sudoeste 31 Sudoeste 0 917.1 0.3 40
2017-11-22 21:00:00 11.3 17 Sudoeste 31 Sudoeste 0 916.7 -0.1 40
2017-11-22 20:00:00 12 13 Sudoeste 24 Sudoeste 0 916.6 -0.8 38
2017-11-22 19:00:00 12.5 10 Sudoeste 22 Sudoeste 0 916.8 -0.8 40
2017-11-22 18:00:00 11.9 4 Sudoeste 14 Sudoeste 0 916.8 -1.5 44
2017-11-22 17:00:00 14.4 7 Sudoeste 30 Sudoeste 0 917.4 -1.6 34
2017-11-22 16:00:00 16.3 13 Sudoeste 28 Sudoeste 0 917.6 -2.2 29
2017-11-22 15:00:00 16.5 12 Sudoeste 30 Sudoeste 0 918.3 -2.3 29
2017-11-22 14:00:00 14.8 5 Sudoeste 12 Sudoeste 0 919 -2.3 32
2017-11-22 13:00:00 12.2 4 Sur 12 Sudeste 0 919.8 -1.9 39
2017-11-22 12:00:00 8.9 5 Este 11 Este 0 920.6 -1 50
2017-11-22 11:00:00 6 4 Este 11 Este 0 921.3 -0.1 57
2017-11-22 10:00:00 1.9 4 Nordeste 9 Este 0 921.7 0.2 81
2017-11-22 09:00:00 -3.4 0 Calma 5 Noroeste 0 921.6 0 96
2017-11-22 08:00:00 -4.3 2 Norte 4 Noroeste 0 921.4 -0.7 95
2017-11-22 07:00:00 -3.7 2 Norte 5 Noroeste 0 921.5 -1.2 95
2017-11-22 06:00:00 -4.2 0 Calma 5 Noroeste 0 921.6 -1.5 95
2017-11-22 05:00:00 -4 0 Calma 3 Noroeste 0 922.1 -1.4 94
2017-11-22 04:00:00 -3.4 3 Norte 5 Noroeste 0 922.7 -1.5 94
2017-11-22 03:00:00 -2.5 3 Norte 5 Noroeste 0 923.1 -1.5 96
2017-11-22 02:00:00 -3.1 0 Calma 4 Noroeste 0 923.5 -1.1 94
2017-11-22 01:00:00 -2.8 0 Calma 5 Oeste 0 924.2 -0.4 93
2017-11-22 00:00:00 -2.5 0 Calma 4 Noroeste 0 924.6 -0.2 92
2017-11-21 23:00:00 -1.9 2 Oeste 4 Norte 0 924.6 -0.4 89
2017-11-21 22:00:00 -1.2 0 Calma 3 Norte 0 924.6 -0.6 87
2017-11-21 21:00:00 -0.3 0 Calma 4 Noroeste 0 924.8 -0.3 80
2017-11-21 20:00:00 1.9 2 Noroeste 4 Noroeste 0 925 -0.4 75
2017-11-21 19:00:00 4.9 0 Calma 3 Sudoeste 0 925.2 -0.2 69
2017-11-21 18:00:00 9.1 3 Sudoeste 12 Sudoeste 0 925.1 -0.5 50
2017-11-21 17:00:00 13.5 7 Sudoeste 17 Sudoeste 0 925.4 -1.1 34
2017-11-21 16:00:00 15.4 6 Sudoeste 16 Sudoeste 0 925.4 -1.7 31
2017-11-21 15:00:00 15.7 6 Sudoeste 18 Sudoeste 0 925.6 -2.5 30
2017-11-21 14:00:00 14.2 5 Sur 13 Sur 0 926.5 -1.7 33
2017-11-21 13:00:00 12.2 5 Sudoeste 12 Sudoeste 0 927.1 -1 37
2017-11-21 12:00:00 9.6 3 Sudeste 8 Sudeste 0 928.1 -0.1 46
2017-11-21 11:00:00 5.9 3 Este 8 Sudeste 0 928.2 0.2 55
2017-11-21 10:00:00 1.5 0 Calma 3 Norte 0 928.1 0.4 76
2017-11-21 09:00:00 -3.5 3 Noroeste 4 Noroeste 0 928.2 0.7 96
2017-11-21 08:00:00 -4.9 0 Calma 3 Noroeste 0 928 0.5 94
2017-11-21 07:00:00 -4.3 2 Noroeste 3 Norte 0 927.7 0 94
2017-11-21 06:00:00 -4.2 0 Calma 3 Nordeste 0 927.5 -0.5 94
2017-11-21 05:00:00 -4.1 2 Noroeste 4 Norte 0 927.5 -0.7 92
2017-11-21 04:00:00 -3.1 3 Noroeste 4 Noroeste 0 927.7 -0.8 94
2017-11-21 03:00:00 -3.2 0 Calma 3 Oeste 0 928 -0.5 91
2017-11-21 02:00:00 -2.2 2 Noroeste 4 Norte 0 928.2 -0.3 87
2017-11-21 01:00:00 -2.2 0 Calma 4 Nordeste 0 928.5 0.2 92
2017-11-21 00:00:00 -1.8 2 Norte 4 Noroeste 0 928.5 0.1 86
2017-11-20 23:00:00 -1.2 0 Calma 5 Noroeste 0 928.5 0.4 85
2017-11-20 22:00:00 0 3 Noroeste 4 Noroeste 0 928.3 0.4 81
2017-11-20 21:00:00 1.5 2 Norte 4 Norte 0 928.4 0.8 77
2017-11-20 20:00:00 3.2 0 Calma 4 Sudeste 0 928.1 0.7 75
2017-11-20 19:00:00 6.1 0 Calma 4 Sur 0 927.9 0.6 58
2017-11-20 18:00:00 9.9 0 Calma 10 Sudoeste 0 927.6 -0.1 46
2017-11-20 17:00:00 14 7 Sudoeste 15 Sudoeste 0 927.4 -0.9 31
2017-11-20 16:00:00 16.2 5 Sudoeste 17 Sudoeste 0 927.3 -1.8 22
2017-11-20 15:00:00 16.4 8 Sudoeste 20 Sudoeste 0 927.7 -2.1 21
2017-11-20 14:00:00 15.5 5 Sudoeste 16 Sudoeste 0 928.3 -1.8 23
2017-11-20 13:00:00 12.9 7 Sudoeste 16 Sudoeste 0 929.1 -0.5 29
2017-11-20 12:00:00 9.8 5 Sur 12 Sudoeste 0 929.8 0.6 40
2017-11-20 11:00:00 6.6 4 Este 10 Este 0 930.1 1.1 51
2017-11-20 10:00:00 2.9 0 Calma 5 Oeste 0 929.6 0.9 74
2017-11-20 09:00:00 -2.9 0 Calma 4 Noroeste 0 929.2 0.7 95
2017-11-20 08:00:00 -3.8 0 Calma 2 Noroeste 0 929 0.7 93
2017-11-20 07:00:00 -3 0 Calma 3 Norte 0 928.7 0.2 93
2017-11-20 06:00:00 -3.1 0 Calma 3 Sudoeste 0 928.5 -0.2 87
2017-11-20 05:00:00 -2.8 0 Calma 4 Noroeste 0 928.3 -0.5 91
2017-11-20 04:00:00 -2.7 0 Calma 4 Oeste 0 928.5 -0.7 85
2017-11-20 03:00:00 -2.5 0 Calma 5 Noroeste 0 928.7 -0.5 84
2017-11-20 02:00:00 -1.7 0 Calma 8 Norte 0 928.8 -0.4 83
2017-11-20 01:00:00 -2 2 Nordeste 9 Nordeste 0 929.2 0.2 83
2017-11-20 00:00:00 -1.5 0 Calma 5 Norte 0 929.2 0.4 82
2017-11-19 23:00:00 -0.7 2 Norte 4 Norte 0 929.2 0.6 79
2017-11-19 22:00:00 0.3 0 Calma 5 Noroeste 0 929 0.7 70
2017-11-19 21:00:00 1.7 2 Norte 5 Este 0 928.8 1 64
2017-11-19 20:00:00 3.4 0 Calma 7 Nordeste 0 928.6 1.2 54
2017-11-19 19:00:00 5.9 4 Norte 8 Nordeste 0 928.3 1 46
2017-11-19 18:00:00 10.1 2 Nordeste 10 Este 0 927.8 0.4 34
2017-11-19 17:00:00 14.9 4 Este 15 Nordeste 0 927.4 -0.3 15
2017-11-19 16:00:00 16.9 5 Este 16 Nordeste 0 927.3 -0.9 11
2017-11-19 15:00:00 16.9 5 Nordeste 18 Sudeste 0 927.4 -1.4 12
2017-11-19 14:00:00 15.7 8 Este 15 Sudeste 0 927.7 -1 14
2017-11-19 13:00:00 14.3 7 Nordeste 18 Nordeste 0 928.2 -0.4 15
2017-11-19 12:00:00 12.3 8 Nordeste 18 Este 0 928.8 0.7 18
2017-11-19 11:00:00 8.9 6 Nordeste 13 Nordeste 0 928.7 1 31
2017-11-19 10:00:00 2.7 0 Calma 3 Oeste 0 928.6 1.1 88
2017-11-19 09:00:00 -3 0 Calma 4 Norte 0 928.1 0.7 96
2017-11-19 08:00:00 -3.9 0 Calma 5 Noroeste 0 927.7 0.4 95
2017-11-19 07:00:00 -3.7 0 Calma 5 Norte 0 927.5 0.1 95
2017-11-19 06:00:00 -3.1 0 Calma 3 Norte 0 927.4 0 95
2017-11-19 05:00:00 -2.6 0 Calma 6 Sudoeste 0 927.3 0.1 94
2017-11-19 04:00:00 -1.6 2 Oeste 6 Sudoeste 0 927.4 -0.1 93
2017-11-19 03:00:00 -0.4 2 Oeste 8 Norte 0 927.4 -0.3 90
2017-11-19 02:00:00 1 4 Noroeste 14 Norte 0 927.2 -0.4 84
2017-11-19 01:00:00 0.9 5 Norte 13 Norte 0 927.5 -0.4 92
2017-11-19 00:00:00 2.4 2 Sur 14 Nordeste 0 927.7 0 83
2017-11-18 23:00:00 3.7 5 Norte 15 Norte 0 927.6 0.3 80
2017-11-18 22:00:00 3.7 3 Nordeste 13 Norte 0 927.9 0.9 83
2017-11-18 21:00:00 6 2 Este 25 Este 0 927.7 0.9 75
2017-11-18 20:00:00 7.8 8 Nordeste 27 Este 0 927.3 0.9 68
2017-11-18 19:00:00 8.5 8 Este 17 Nordeste 0 927 1 56
2017-11-18 18:00:00 10.7 4 Este 19 Nordeste 0 926.8 0.5 44
2017-11-18 17:00:00 13.6 6 Este 23 Este 0 926.4 -0.5 36
2017-11-18 16:00:00 15.2 7 Este 23 Este 0 926 -1.3 35
2017-11-18 15:00:00 15.7 8 Este 22 Nordeste 0 926.3 -1.7 35
2017-11-18 14:00:00 15 9 Nordeste 29 Norte 0 926.9 -1.2 42
2017-11-18 13:00:00 14.3 10 Nordeste 27 Nordeste 0 927.3 -0.7 47
2017-11-18 12:00:00 12.8 7 Este 31 Nordeste 0 928 0.1 56
2017-11-18 11:00:00 10.5 12 Nordeste 26 Nordeste 0 928.1 0.8 59
2017-11-18 10:00:00 7.7 5 Nordeste 13 Nordeste 0 928 0.9 65
2017-11-18 09:00:00 3.8 5 Nordeste 18 Nordeste 0 927.9 1 73
2017-11-18 08:00:00 3.8 6 Nordeste 15 Norte 0 927.3 0.3 72
2017-11-18 07:00:00 2.5 4 Nordeste 14 Nordeste 0 927.1 0 76
2017-11-18 06:00:00 3.2 2 Este 17 Nordeste 0 926.9 -0.1 70
2017-11-18 05:00:00 4.9 9 Nordeste 27 Nordeste 0 927 -0.1 65
2017-11-18 04:00:00 5.6 11 Nordeste 27 Nordeste 0 927.1 -0.4 60
2017-11-18 03:00:00 6.3 11 Nordeste 25 Norte 0 927 -0.4 58
2017-11-18 02:00:00 6.9 12 Nordeste 27 Nordeste 0 927.1 -0.4 55
2017-11-18 01:00:00 7.1 12 Nordeste 27 Nordeste 0 927.5 0.3 58
2017-11-18 00:00:00 6.7 7 Nordeste 23 Norte 0 927.4 0.5 64
2017-11-17 23:00:00 7.2 9 Nordeste 22 Nordeste 0 927.5 0.6 61
2017-11-17 22:00:00 7.1 6 Nordeste 17 Nordeste 0 927.2 0.7 61
2017-11-17 21:00:00 8.1 6 Nordeste 17 Nordeste 0 926.9 0.7 56
2017-11-17 20:00:00 8.8 7 Nordeste 18 Nordeste 0 926.9 1.1 49
2017-11-17 19:00:00 10.6 8 Nordeste 19 Norte 0 926.5 0.7 42
2017-11-17 18:00:00 12.9 6 Nordeste 18 Nordeste 0 926.2 0.2 38
2017-11-17 17:00:00 16 5 Nordeste 16 Este 0 925.8 -0.7 29
2017-11-17 16:00:00 17.5 6 Este 17 Este 0 925.8 -1.2 27
2017-11-17 15:00:00 17.8 8 Nordeste 23 Nordeste 0 926 -1.7 28
2017-11-17 14:00:00 17.4 6 Nordeste 18 Este 0 926.5 -1.3 29
2017-11-17 13:00:00 16.4 6 Nordeste 19 Nordeste 0 927 -0.6 30
2017-11-17 12:00:00 15.3 7 Este 20 Nordeste 0 927.7 0.3 33
2017-11-17 11:00:00 13.4 6 Nordeste 18 Nordeste 0 927.8 0.7 38
2017-11-17 10:00:00 9.7 4 Norte 9 Nordeste 0 927.6 0.8 51
2017-11-17 09:00:00 3.7 3 Noroeste 14 Nordeste 0 927.4 0.5 74
2017-11-17 08:00:00 0 4 Norte 14 Este 0 927.1 0.1 89
2017-11-17 07:00:00 0.6 0 Calma 6 Sudoeste 0 926.8 -0.3 87
2017-11-17 06:00:00 0.9 2 Noroeste 12 Norte 0 926.9 -0.3 87
2017-11-17 05:00:00 0.8 0 Calma 5 Oeste 0 927 -0.2 86
2017-11-17 04:00:00 2 2 Oeste 15 Nordeste 0 927.1 -0.4 81
2017-11-17 03:00:00 1.1 4 Norte 10 Norte 0 927.2 -0.2 90
2017-11-17 02:00:00 0.6 3 Norte 9 Norte 0 927.2 -0.1 93
2017-11-17 01:00:00 0.8 2 Noroeste 5 Norte 0 927.5 0.3 86
2017-11-17 00:00:00 1.6 0 Calma 4 Oeste 0 927.4 0.3 83
2017-11-16 23:00:00 2.7 3 Oeste 11 Norte 0 927.3 0.4 77
2017-11-16 22:00:00 3.2 4 Norte 14 Norte 0 927.2 0.9 77
2017-11-16 21:00:00 4.4 3 Nordeste 7 Nordeste 0 927.1 1.2 74
2017-11-16 20:00:00 6.5 5 Nordeste 12 Nordeste 0 926.9 1.1 69
2017-11-16 19:00:00 8.1 0 Calma 3 Norte 0 926.3 0.5 63
2017-11-16 18:00:00 12.4 0 Calma 5 Sudoeste 0 925.9 0.1 49
2017-11-16 17:00:00 16.8 3 Sur 8 Este 0 925.8 -0.4 30
2017-11-16 16:00:00 17.7 4 Sudeste 9 Este 0 925.8 -0.9 26
2017-11-16 15:00:00 17.5 3 Este 11 Sudeste 0 925.8 -1.4 29
2017-11-16 14:00:00 16.7 3 Este 10 Sudeste 0 926.2 -1.1 29
2017-11-16 13:00:00 14.7 2 Este 7 Sudeste 0 926.7 -0.3 33
2017-11-16 12:00:00 11.9 2 Sudeste 7 Sudeste 0 927.2 0.7 46
2017-11-16 11:00:00 8.4 0 Calma 4 Norte 0 927.3 1.4 56
2017-11-16 10:00:00 4.1 0 Calma 4 Noroeste 0 927 1.5 81
2017-11-16 09:00:00 -1.7 0 Calma 3 Noroeste 0 926.5 1.2 97
2017-11-16 08:00:00 -3.2 0 Calma 2 Sudeste 0 925.9 0.7 95
2017-11-16 07:00:00 -2.9 0 Calma 3 Norte 0 925.5 0.2 95
2017-11-16 06:00:00 -2.7 0 Calma 3 Oeste 0 925.3 -0.1 95
2017-11-16 05:00:00 -2.2 2 Noroeste 3 Noroeste 0 925.2 -0.1 95
2017-11-16 04:00:00 -2.4 0 Calma 3 Norte 0 925.3 -0.2 93
2017-11-16 03:00:00 -1.9 2 Norte 4 Norte 0 925.4 0 93
2017-11-16 02:00:00 -2 0 Calma 3 Norte 0 925.3 -0.1 93
2017-11-16 01:00:00 -1.8 0 Calma 3 Norte 0 925.5 0.1 91
2017-11-16 00:00:00 -1.3 0 Calma 3 Noroeste 0 925.4 0.3 92
2017-11-15 23:00:00 -0.8 0 Calma 4 Norte 0 925.4 0.4 85
2017-11-15 22:00:00 -0.1 0 Calma 4 Oeste 0 925.4 0.7 83
2017-11-15 21:00:00 0.8 0 Calma 3 Noroeste 0 925.1 0.7 78
2017-11-15 20:00:00 2.5 0 Calma 4 Nordeste 0 925 0.8 70
2017-11-15 19:00:00 5.1 0 Calma 3 Este 0 924.7 0.7 57
2017-11-15 18:00:00 9.1 0 Calma 10 Sudoeste 0 924.4 0 43
2017-11-15 17:00:00 13.3 4 Sudeste 9 Sudeste 0 924.2 -0.5 25
2017-11-15 16:00:00 14.6 3 Sudeste 11 Sudeste 0 924 -1.3 22
2017-11-15 15:00:00 14.5 6 Sudeste 13 Sudeste 0 924.4 -1.7 19
2017-11-15 14:00:00 13.5 5 Sudeste 14 Sudeste 0 924.7 -1.6 22
2017-11-15 13:00:00 11.8 4 Sudeste 13 Sudeste 0 925.3 -0.9 28
2017-11-15 12:00:00 8.6 6 Sudeste 11 Sudeste 0 926.1 0.1 41
2017-11-15 11:00:00 7.2 4 Este 10 Este 0 926.3 0.8 39
2017-11-15 10:00:00 4.3 5 Sudeste 9 Sudeste 0 926.2 1.2 55
2017-11-15 09:00:00 -0.8 0 Calma 6 Sur 0 926 0.8 69
2017-11-15 08:00:00 -0.2 0 Calma 14 Nordeste 0 925.5 0.2 67
2017-11-15 07:00:00 0.9 4 Nordeste 16 Nordeste 0 925 -0.7 55
2017-11-15 06:00:00 1.9 6 Nordeste 21 Nordeste 0 925.2 -0.6 47
2017-11-15 05:00:00 1.9 7 Nordeste 20 Nordeste 0 925.3 -0.6 47
2017-11-15 04:00:00 2.9 10 Norte 24 Norte 0 925.7 -0.6 40
2017-11-15 03:00:00 2.1 6 Nordeste 23 Nordeste 0 925.8 -0.8 48
2017-11-15 02:00:00 2.7 10 Norte 24 Norte 0 925.9 -0.9 47
2017-11-15 01:00:00 2.4 6 Norte 26 Nordeste 0 926.3 -0.4 53
2017-11-15 00:00:00 2.7 10 Nordeste 24 Norte 0 926.6 0 52
2017-11-14 23:00:00 2.9 7 Norte 19 Nordeste 0 926.8 0.2 55
2017-11-14 22:00:00 3.6 4 Norte 23 Nordeste 0 926.7 0 56
2017-11-14 21:00:00 4.2 9 Nordeste 22 Nordeste 0 926.6 0.3 65
2017-11-14 20:00:00 5.4 10 Nordeste 25 Nordeste 0 926.6 0.2 60
2017-11-14 19:00:00 5.9 5 Nordeste 20 Nordeste 0 926.7 0.2 60
2017-11-14 18:00:00 7.9 9 Norte 20 Norte 0 926.3 -0.4 54
2017-11-14 17:00:00 10.3 8 Nordeste 29 Nordeste 0 926.4 -0.8 32
2017-11-14 16:00:00 11 12 Este 37 Nordeste 0 926.5 -1.3 30
2017-11-14 15:00:00 11.1 10 Nordeste 31 Nordeste 0 926.7 -1.8 38
2017-11-14 14:00:00 10.7 12 Nordeste 31 Nordeste 0 927.2 -1.5 44
2017-11-14 13:00:00 9.4 13 Nordeste 38 Nordeste 0 927.8 -1 50
2017-11-14 12:00:00 8.2 14 Nordeste 36 Nordeste 0 928.5 -0.2 55
2017-11-14 11:00:00 6.5 15 Nordeste 36 Nordeste 0 928.7 0.3 65
2017-11-14 10:00:00 5.3 12 Nordeste 26 Este 0 928.8 0.5 71
2017-11-14 09:00:00 1.3 9 Norte 18 Norte 0 928.7 0.4 85
2017-11-14 08:00:00 -0.1 4 Noroeste 14 Norte 0 928.4 0 90
2017-11-14 07:00:00 1.4 9 Norte 18 Norte 0 928.3 -0.4 82
2017-11-14 06:00:00 0.7 10 Norte 15 Nordeste 0 928.3 -0.9 93
2017-11-14 05:00:00 1 2 Sudeste 11 Sur 0 928.4 -0.7 86
2017-11-14 04:00:00 2.3 4 Norte 18 Nordeste 0 928.7 -0.5 81
2017-11-14 03:00:00 3.1 8 Norte 22 Nordeste 0 929.2 -0.2 80
2017-11-14 02:00:00 3.2 6 Nordeste 23 Nordeste 0 929.1 -0.4 83
2017-11-14 01:00:00 2.5 6 Nordeste 23 Nordeste 0 929.2 -0.3 82
2017-11-14 00:00:00 1.9 7 Nordeste 17 Este 0 929.4 0.1 83
2017-11-13 23:00:00 2.8 8 Nordeste 21 Nordeste 0 929.5 0.5 81
2017-11-13 22:00:00 2.9 8 Nordeste 23 Este 0 929.5 0.9 81
2017-11-13 21:00:00 2.9 7 Este 25 Este 0 929.3 1 79
2017-11-13 20:00:00 3.4 8 Nordeste 35 Este 0 929 1 78
2017-11-13 19:00:00 4.3 12 Nordeste 27 Nordeste 0 928.6 0.7 72
2017-11-13 18:00:00 5.7 11 Nordeste 36 Nordeste 0 928.3 0.4 63
2017-11-13 17:00:00 7.4 11 Nordeste 39 Este 0 928 0.1 61
2017-11-13 16:00:00 8.6 11 Nordeste 36 Nordeste 0 927.9 -0.1 54
2017-11-13 15:00:00 9.2 14 Nordeste 41 Norte 0 927.9 -0.6 51
2017-11-13 14:00:00 9 17 Nordeste 47 Nordeste 0 927.9 -0.1 57
2017-11-13 13:00:00 10 21 Nordeste 45 Nordeste 0 928 -0.1 46
2017-11-13 12:00:00 9 20 Nordeste 47 Norte 0 928.5 0.9 52
2017-11-13 11:00:00 8.9 14 Este 38 Nordeste 0 928 1.1 63
2017-11-13 10:00:00 6.8 7 Nordeste 21 Sudeste 0 928.1 1.5 76
2017-11-13 09:00:00 1.7 3 Este 8 Sudeste 0 927.6 0.8 94
2017-11-13 08:00:00 1.8 0 Calma 11 Noroeste 0 926.9 0.2 88
2017-11-13 07:00:00 4.8 7 Norte 21 Nordeste 0 926.6 -0.4 75
2017-11-13 06:00:00 5.7 9 Norte 19 Norte 0 926.8 -0.5 75
2017-11-13 05:00:00 4 8 Norte 16 Nordeste 0 926.7 -0.2 86
2017-11-13 04:00:00 6.3 7 Nordeste 24 Norte 0 927 -0.1 77
2017-11-13 03:00:00 2.1 5 Nordeste 16 Nordeste 0 927.3 -0.1 97
2017-11-13 02:00:00 0.3 2 Noroeste 5 Noroeste 0 926.9 -0.3 96
2017-11-13 01:00:00 1 3 Norte 5 Norte 0 927.1 0 96
2017-11-13 00:00:00 1.4 0 Calma 5 Noroeste 0 927.4 0.6 94
2017-11-12 23:00:00 2.5 3 Oeste 10 Nordeste 0 927.2 0.4 93
2017-11-12 22:00:00 3.7 4 Nordeste 10 Nordeste 0 927.1 0.4 94
2017-11-12 21:00:00 4.7 3 Nordeste 6 Este 0 926.8 0.2 91
2017-11-12 20:00:00 6.4 3 Este 6 Este 0 926.8 0.4 85
2017-11-12 19:00:00 8.8 2 Sudoeste 8 Sudoeste 0 926.7 -0.1 77
2017-11-12 18:00:00 10.4 3 Sudoeste 11 Sudoeste 0 926.6 -0.9 70
2017-11-12 17:00:00 11.7 6 Sudoeste 16 Sudoeste 0 926.4 -1.7 65
2017-11-12 16:00:00 11.1 6 Sudoeste 12 Sudoeste 0 926.8 -1.6 68
2017-11-12 15:00:00 9.2 2 Norte 11 Sudoeste 0 927.5 -1.6 80
2017-11-12 14:00:00 6.8 0 Calma 8 Sudoeste 0 928.1 -1.5 96
2017-11-12 13:00:00 5.8 0 Calma 10 Sudeste 0 928.4 -1.2 97
2017-11-12 12:00:00 5.3 5 Este 12 Sudeste 0 929.1 -0.5 97
2017-11-12 11:00:00 4.2 4 Este 8 Sudeste 0 929.6 0.4 98
2017-11-12 10:00:00 3.1 0 Calma 9 Norte 0 929.6 0.3 98
2017-11-12 09:00:00 2.1 4 Norte 7 Norte 0 929.6 -0.2 98
2017-11-12 08:00:00 1.9 3 Nordeste 10 Nordeste 0 929.2 -0.5 98
2017-11-12 07:00:00 1.5 4 Norte 6 Norte 0 929.3 -0.4 98
2017-11-12 06:00:00 0.6 3 Nordeste 9 Este 0 929.8 -0.6 98
2017-11-12 05:00:00 -0.7 0 Calma 6 Nordeste 0 929.7 -1.2 97
2017-11-12 04:00:00 -1.3 0 Calma 3 Noroeste 0 929.7 -1.6 97
2017-11-12 03:00:00 -0.9 0 Calma 3 Norte 0 930.4 -1.2 96
2017-11-12 02:00:00 -0.5 0 Calma 3 Oeste 0 930.9 -0.9 96
2017-11-12 01:00:00 -0.1 0 Calma 3 Oeste 0 931.3 -0.7 95
2017-11-12 00:00:00 1 0 Calma 3 Norte 0 931.6 -0.5 95
2017-11-11 23:00:00 2.3 0 Calma 6 Nordeste 0 931.8 -0.4 95
2017-11-11 22:00:00 2.5 2 Norte 3 Norte 0 932 -0.1 94
2017-11-11 21:00:00 3.6 0 Calma 4 Norte 0 932.1 0.2 92
2017-11-11 20:00:00 4.8 0 Calma 4 Este 0 932.2 0.2 84
2017-11-11 19:00:00 7 0 Calma 4 Sur 0 932.1 0.1 78
2017-11-11 18:00:00 10.1 3 Sur 13 Sudoeste 0 931.9 -0.7 69
2017-11-11 17:00:00 13.4 5 Sur 16 Sudoeste 0 932 -1.2 55
2017-11-11 16:00:00 14.2 3 Sur 11 Sudoeste 0 932 -1.8 50
2017-11-11 15:00:00 14.4 4 Sur 13 Sudoeste 0 932.6 -2.1 49
2017-11-11 14:00:00 13 5 Noroeste 14 Sur 0 933.2 -1.7 55
2017-11-11 13:00:00 12.1 5 Sudoeste 20 Sur 0 933.8 -1.3 58
2017-11-11 12:00:00 10.5 8 Sudoeste 18 Sudoeste 0 934.7 -0.1 68
2017-11-11 11:00:00 8 2 Sudeste 6 Sudeste 0 934.9 0.3 81
2017-11-11 10:00:00 4.1 3 Este 7 Sudeste 0 935.1 0.4 96
2017-11-11 09:00:00 -0.1 0 Calma 3 Sudeste 0 934.8 0.1 98
2017-11-11 08:00:00 -1.4 0 Calma 4 Sudoeste 0 934.6 -0.3 97
2017-11-11 07:00:00 -1 0 Calma 3 Sudeste 0 934.7 -0.2 97
2017-11-11 06:00:00 -0.8 0 Calma 3 Norte 0 934.7 -0.6 97
2017-11-11 05:00:00 -0.7 0 Calma 3 Noroeste 0 934.9 -0.4 97
2017-11-11 04:00:00 -0.1 2 Noroeste 4 Noroeste 0 934.9 -0.5 97
2017-11-11 03:00:00 0.3 2 Norte 5 Sudeste 0 935.3 -0.3 97
2017-11-11 02:00:00 1.1 3 Noroeste 4 Noroeste 0 935.3 -0.5 96
2017-11-11 01:00:00 1.6 2 Noroeste 5 Oeste 0 935.4 -0.2 96
2017-11-11 00:00:00 2.4 2 Noroeste 5 Nordeste 0 935.6 0.2 95
2017-11-10 23:00:00 2.9 2 Norte 5 Sudoeste 0 935.8 0.4 94
2017-11-10 22:00:00 4 2 Sudoeste 6 Noroeste 0 935.6 0.4 93
2017-11-10 21:00:00 5.5 3 Oeste 8 Nordeste 0 935.4 1 88
2017-11-10 20:00:00 7.5 2 Este 9 Este 0 935.4 1.1 82
2017-11-10 19:00:00 8.9 4 Noroeste 9 Noroeste 0 935.2 1.2 78
2017-11-10 18:00:00 12.2 5 Sur 14 Sur 0 934.4 0.3 65
2017-11-10 17:00:00 14.4 7 Sudeste 13 Sudeste 0 934.3 0 56
2017-11-10 16:00:00 15.6 3 Sur 15 Sudoeste 0 934 -0.7 51
2017-11-10 15:00:00 15.7 9 Sudoeste 16 Sur 0 934.1 -0.9 51
2017-11-10 14:00:00 15.2 6 Sur 16 Sudoeste 0 934.3 -0.7 54
2017-11-10 13:00:00 13.8 4 Sur 11 Sudoeste 0 934.7 -0.3 59
2017-11-10 12:00:00 12.2 3 Oeste 12 Sudoeste 0 935 0.7 63
2017-11-10 11:00:00 9.1 5 Sur 10 Sudeste 0 935 1 73
2017-11-10 10:00:00 4.8 2 Sudoeste 7 Sudoeste 0 935 1 91
2017-11-10 09:00:00 3.2 2 Oeste 5 Noroeste 0 934.3 0.6 95
2017-11-10 08:00:00 2.3 4 Oeste 8 Sudoeste 0 934 0.3 96
2017-11-10 07:00:00 1.4 3 Oeste 8 Este 0 934 0.1 96
2017-11-10 06:00:00 -0.3 2 Norte 5 Sudoeste 0 933.7 -0.2 95
2017-11-10 05:00:00 0.4 2 Oeste 5 Noroeste 0 933.7 -0.2 94
2017-11-10 04:00:00 1.6 0 Calma 5 Noroeste 0 933.9 -0.5 93
2017-11-10 03:00:00 1.9 2 Norte 6 Noroeste 0 933.9 -0.3 94
2017-11-10 02:00:00 1.2 0 Calma 5 Sudoeste 0 933.9 -0.3 94
2017-11-10 01:00:00 0.6 0 Calma 5 Sudoeste 0 934.4 0.2 94
2017-11-10 00:00:00 0.7 4 Noroeste 6 Oeste 0 934.2 0.5 93
2017-11-09 23:00:00 0.8 0 Calma 4 Norte 0 934.2 0.5 86
2017-11-09 22:00:00 1.5 3 Noroeste 5 Nordeste 0 934.2 0.9 84
2017-11-09 21:00:00 2.5 3 Sur 10 Noroeste 0 933.7 1 76
2017-11-09 20:00:00 5.1 7 Norte 14 Norte 0 933.7 1.2 58
2017-11-09 19:00:00 6 6 Nordeste 17 Nordeste 0 933.3 1.2 55
2017-11-09 18:00:00 7.4 3 Este 24 Este 0 932.7 0.6 55
2017-11-09 17:00:00 9.6 9 Nordeste 26 Nordeste 0 932.5 0 42
2017-11-09 16:00:00 10.9 8 Nordeste 18 Nordeste 0 932.1 -0.7 37
2017-11-09 15:00:00 11 6 Este 18 Sudeste 0 932.1 -0.9 41
2017-11-09 14:00:00 9.6 6 Este 25 Noroeste 0 932.5 -0.5 48
2017-11-09 13:00:00 9.3 7 Norte 19 Nordeste 0 932.8 -0.3 43
2017-11-09 12:00:00 8.4 3 Noroeste 12 Norte 0 933 -0.1 53
2017-11-09 11:00:00 5.3 6 Noroeste 12 Noroeste 0 933 0.6 74
2017-11-09 10:00:00 2.1 2 Noroeste 10 Nordeste 0 933.1 1.3 88
2017-11-09 09:00:00 -1.1 3 Sudeste 17 Norte 0 933.1 1.3 97
2017-11-09 08:00:00 -2.8 3 Norte 6 Norte 0 932.4 0.9 97
2017-11-09 07:00:00 -3 0 Calma 4 Norte 0 931.8 0.2 97
2017-11-09 06:00:00 -2.8 0 Calma 3 Oeste 0 931.8 0.4 97
2017-11-09 05:00:00 -2.4 2 Noroeste 4 Oeste 0 931.5 -0.3 97
2017-11-09 04:00:00 -2.3 2 Sudoeste 4 Oeste 0 931.6 0 97
2017-11-09 03:00:00 -2 0 Calma 4 Oeste 0 931.4 -0.4 96
2017-11-09 02:00:00 -1.5 0 Calma 4 Noroeste 0 931.8 0.3 96
2017-11-09 01:00:00 -1.5 0 Calma 5 Noroeste 0 931.6 0.3 95
2017-11-09 00:00:00 -0.5 0 Calma 11 Nordeste 0 931.8 0.7 94
2017-11-08 23:00:00 0.2 5 Nordeste 9 Nordeste 0 931.5 0.6 94
2017-11-08 22:00:00 0.6 0 Calma 7 Norte 0 931.3 1.3 84
2017-11-08 21:00:00 3.1 4 Nordeste 16 Nordeste 0 931.1 1.4 81
2017-11-08 20:00:00 3.7 4 Norte 14 Nordeste 0 930.9 1.9 80
2017-11-08 19:00:00 4.7 6 Nordeste 27 Nordeste 0 930 1.7 77
2017-11-08 18:00:00 6.5 7 Nordeste 22 Nordeste 0 929.7 1.9 69
2017-11-08 17:00:00 7.9 10 Norte 42 Norte 0 929 0.8 60
2017-11-08 16:00:00 9.3 24 Norte 46 Noroeste 0 928.3 -0.7 52
2017-11-08 15:00:00 11 21 Norte 34 Noroeste 0 927.8 -1.9 44
2017-11-08 14:00:00 11.1 8 Noroeste 19 Noroeste 0 928.2 -1.8 49
2017-11-08 13:00:00 10.9 3 Noroeste 28 Noroeste 0 929 -1 50
2017-11-08 12:00:00 9 7 Noroeste 21 Noroeste 0 929.7 0 51
2017-11-08 11:00:00 8.4 6 Oeste 15 Noroeste 0 930 0.8 57
2017-11-08 10:00:00 6 9 Norte 13 Norte 0 930 1 65
2017-11-08 09:00:00 0.7 0 Calma 6 Nordeste 0 929.7 0.8 97
2017-11-08 08:00:00 -1.1 2 Nordeste 6 Sudoeste 0 929.2 0.6 97
2017-11-08 07:00:00 -0.5 0 Calma 8 Norte 0 929 0.6 97
2017-11-08 06:00:00 -0.4 0 Calma 8 Sudoeste 0 928.9 0.7 96
2017-11-08 05:00:00 0 0 Calma 6 Norte 0 928.6 0.7 96
2017-11-08 04:00:00 0.9 2 Norte 5 Sur 0 928.4 0.6 95
2017-11-08 03:00:00 1.6 0 Calma 5 Sudoeste 0 928.2 0.8 93
2017-11-08 02:00:00 2.9 3 Noroeste 8 Norte 0 927.9 0.8 91
2017-11-08 01:00:00 4.9 3 Norte 10 Noroeste 0 927.8 1.4 81
2017-11-08 00:00:00 7.6 9 Norte 18 Noroeste 0 927.4 1.3 68
2017-11-07 23:00:00 7.1 7 Noroeste 19 Noroeste 0 927.1 1.4 79
2017-11-07 22:00:00 8.1 5 Norte 18 Norte 0 926.4 1 70
2017-11-07 21:00:00 8.8 7 Norte 16 Norte 0 926.1 1.4 70
2017-11-07 20:00:00 9.6 3 Norte 14 Noroeste 0 925.7 1.3 75
2017-11-07 19:00:00 10.9 4 Noroeste 13 Noroeste 0 925.4 1 69
2017-11-07 18:00:00 11.6 2 Sudoeste 18 Sudoeste 0 924.7 0.2 66
2017-11-07 17:00:00 13.8 3 Nordeste 16 Sudoeste 0 924.4 -0.8 55
2017-11-07 16:00:00 14 3 Oeste 24 Sudoeste 0 924.4 -1.2 54
2017-11-07 15:00:00 13.9 7 Sudoeste 22 Sur 0 924.5 -1.8 53
2017-11-07 14:00:00 12.7 6 Sudoeste 28 Oeste 0 925.2 -1.4 59
2017-11-07 13:00:00 11.3 7 Sudoeste 30 Sudoeste 0 925.6 -1.3 62
2017-11-07 12:00:00 10.1 6 Sudoeste 26 Sudoeste 0 926.3 -0.7 63
2017-11-07 11:00:00 8.6 4 Sudoeste 17 Sur 0 926.6 0.1 71
2017-11-07 10:00:00 5.6 3 Sudoeste 18 Sudoeste 0 926.9 0.1 94
2017-11-07 09:00:00 0.9 0 Calma 7 Sudeste 0 927 0.3 98
2017-11-07 08:00:00 -1.2 2 Sur 5 Oeste 0 926.5 -0.3 97
2017-11-07 07:00:00 -1 3 Noroeste 10 Noroeste 0 926.8 -0.3 97
2017-11-07 06:00:00 -1 2 Oeste 7 Noroeste 0 926.7 -1 97
2017-11-07 05:00:00 -0.5 3 Noroeste 8 Noroeste 0 926.8 -1.1 97
2017-11-07 04:00:00 -0.6 4 Noroeste 7 Noroeste 0 927.1 -1 97
2017-11-07 03:00:00 0 3 Noroeste 6 Noroeste 0 927.7 -0.7 96
2017-11-07 02:00:00 -0.2 0 Calma 13 Sudoeste 0 927.9 -0.8 95
2017-11-07 01:00:00 0.9 2 Norte 6 Norte 0 928.1 -0.6 95
2017-11-07 00:00:00 1.7 3 Norte 6 Este 0 928.4 -0.2 95
2017-11-06 23:00:00 2.1 2 Norte 4 Sudoeste 0 928.7 0 93
2017-11-06 22:00:00 3.3 0 Calma 8 Este 0 928.7 -0.1 84
2017-11-06 21:00:00 5.1 3 Este 16 Nordeste 0 928.6 0.1 77
2017-11-06 20:00:00 6.1 5 Este 16 Nordeste 0 928.7 0.3 72
2017-11-06 19:00:00 7 4 Este 14 Nordeste 0 928.8 0.5 67
2017-11-06 18:00:00 9 6 Nordeste 19 Nordeste 0 928.5 -0.2 62
2017-11-06 17:00:00 11.7 4 Nordeste 14 Sudoeste 0 928.4 -1.1 49
2017-11-06 16:00:00 12.7 4 Noroeste 15 Este 0 928.3 -1.9 45
2017-11-06 15:00:00 10.8 4 Nordeste 27 Nordeste 0 928.7 -2.3 53
2017-11-06 14:00:00 11.7 10 Nordeste 23 Nordeste 0 929.5 -1.7 47
2017-11-06 13:00:00 11.3 6 Norte 18 Nordeste 0 930.2 -1.2 50
2017-11-06 12:00:00 10.4 5 Norte 12 Nordeste 0 931 -0.2 58
2017-11-06 11:00:00 9.1 3 Este 9 Este 0 931.2 0.5 63
2017-11-06 10:00:00 5.8 2 Oeste 10 Noroeste 0 931.4 0.8 94
2017-11-06 09:00:00 1.1 0 Calma 4 Sudoeste 0 931.2 0.6 98
2017-11-06 08:00:00 -0.8 0 Calma 6 Norte 0 930.7 0.2 97
2017-11-06 07:00:00 -0.7 0 Calma 4 Sudoeste 0 930.6 0.2 97
2017-11-06 06:00:00 -0.2 0 Calma 3 Norte 0 930.6 -0.1 97
2017-11-06 05:00:00 0.1 2 Oeste 7 Sudoeste 0 930.5 -0.1 97
2017-11-06 04:00:00 0.7 5 Sudoeste 9 Sudoeste 0 930.4 -0.5 97
2017-11-06 03:00:00 0.9 3 Sudoeste 5 Sudoeste 0 930.7 -0.2 97
2017-11-06 02:00:00 0.9 2 Oeste 9 Noroeste 0 930.6 -0.4 96
2017-11-06 01:00:00 0.9 0 Calma 4 Norte 0 930.9 0.2 95
2017-11-06 00:00:00 1.2 0 Calma 4 Sur 0 930.9 0.6 94
2017-11-05 23:00:00 2.1 0 Calma 4 Norte 0 931 0.9 93
2017-11-05 22:00:00 3.1 3 Oeste 10 Noroeste 0 930.7 1.1 86
2017-11-05 21:00:00 4.5 4 Noroeste 14 Noroeste 0 930.3 1 81
2017-11-05 20:00:00 6.3 7 Noroeste 27 Noroeste 0 930.1 1.3 74
2017-11-05 19:00:00 7.3 10 Noroeste 25 Noroeste 0 929.6 1.1 70
2017-11-05 18:00:00 8.6 8 Noroeste 28 Noroeste 0 929.3 1 64
2017-11-05 17:00:00 10.3 12 Noroeste 32 Noroeste 0 928.8 0.2 54
2017-11-05 16:00:00 11.9 16 Noroeste 44 Noroeste 0 928.5 -0.4 49
2017-11-05 15:00:00 12 12 Noroeste 39 Noroeste 0 928.3 -1 49
2017-11-05 14:00:00 12.3 12 Noroeste 30 Noroeste 0 928.6 -0.7 52
2017-11-05 13:00:00 11.3 10 Noroeste 24 Norte 0 928.9 -0.2 53
2017-11-05 12:00:00 10.9 8 Noroeste 23 Noroeste 0 929.3 0.7 60
2017-11-05 11:00:00 9.5 5 Noroeste 15 Noroeste 0 929.3 1.5 65
2017-11-05 10:00:00 7.8 3 Norte 13 Noroeste 0 929.1 2 72
2017-11-05 09:00:00 4.1 3 Oeste 8 Noroeste 0 928.6 1.9 95
2017-11-05 08:00:00 3.1 0 Calma 17 Noroeste 0 927.8 1.7 90
2017-11-05 07:00:00 5.1 6 Norte 26 Norte 0 927.1 1.5 79
2017-11-05 06:00:00 5.6 12 Norte 22 Norte 0 926.7 1.3 81
2017-11-05 05:00:00 4.2 3 Sudoeste 9 Noroeste 0 926.1 1.3 97
2017-11-05 04:00:00 4.7 3 Norte 6 Norte 0 925.6 1.6 97
2017-11-05 03:00:00 4.5 2 Noroeste 5 Sudoeste 0 925.4 1.9 96
2017-11-05 02:00:00 5.2 3 Oeste 8 Norte 0 924.8 1.9 96
2017-11-05 01:00:00 5.4 3 Sudeste 9 Sudoeste 0 924 1.7 96
2017-11-05 00:00:00 5.4 0 Calma 8 Noroeste 0 923.5 2 95
2017-11-04 23:00:00 6.7 0 Calma 4 Sudoeste 0 922.9 1.9 95
2017-11-04 22:00:00 8 0 Calma 14 Este 0 922.3 1.9 95
2017-11-04 21:00:00 8.9 0 Calma 5 Oeste 0 921.5 2.1 94
2017-11-04 20:00:00 9.8 2 Oeste 6 Norte 0 921 2.5 94
2017-11-04 19:00:00 10.2 0 Calma 5 Noroeste 0.2 920.4 2.5 93
2017-11-04 18:00:00 10.3 5 Noroeste 30 Noroeste 3.2 919.4 1.7 90
2017-11-04 17:00:00 13.8 0 Calma 13 Noroeste 0 918.5 0.5 70
2017-11-04 16:00:00 13.8 4 Noroeste 15 Norte 0 917.9 -0.3 66
2017-11-04 15:00:00 13.4 3 Oeste 12 Noroeste 0 917.7 -0.8 75
2017-11-04 14:00:00 12.4 4 Norte 10 Noroeste 0 918 -0.3 80
2017-11-04 13:00:00 10.2 3 Norte 8 Norte 0.4 918.2 0.2 92
2017-11-04 12:00:00 9.6 3 Nordeste 8 Nordeste 2.2 918.5 0.9 95
2017-11-04 11:00:00 9.3 2 Este 11 Nordeste 1.8 918.3 1.4 96
2017-11-04 10:00:00 8.9 5 Nordeste 9 Nordeste 1.8 918 1.4 96
2017-11-04 09:00:00 8.9 4 Este 10 Nordeste 2.6 917.6 0.9 95
2017-11-04 08:00:00 8.6 5 Nordeste 13 Nordeste 2.4 916.9 0.4 95
2017-11-04 07:00:00 8.3 5 Nordeste 12 Nordeste 2.8 916.6 0.3 94
2017-11-04 06:00:00 8.4 4 Nordeste 11 Este 0 916.7 0 93
2017-11-04 05:00:00 8.6 5 Nordeste 16 Nordeste 0 916.5 -0.7 91
2017-11-04 04:00:00 8.2 6 Norte 14 Nordeste 0 916.3 -1.4 92
2017-11-04 03:00:00 7.9 4 Nordeste 11 Nordeste 0 916.7 -1.2 94
2017-11-04 02:00:00 7.7 4 Nordeste 10 Norte 0 917.2 -0.6 96
2017-11-04 01:00:00 6.4 2 Norte 4 Nordeste 0 917.7 -0.3 95
2017-11-04 00:00:00 7 0 Calma 9 Nordeste 0 917.9 -0.3 95
2017-11-03 23:00:00 8.1 3 Nordeste 10 Este 0 917.8 -0.4 94
2017-11-03 22:00:00 8.2 2 Nordeste 4 Norte 0 918 0 93
2017-11-03 21:00:00 9.6 2 Norte 3 Norte 0 918.2 0.5 92
2017-11-03 20:00:00 10.3 0 Calma 4 Norte 0 918.2 0.6 91
2017-11-03 19:00:00 11.4 0 Calma 7 Oeste 0 918 0.2 81
2017-11-03 18:00:00 13.1 4 Sudoeste 21 Sudoeste 0 917.7 -0.4 72
2017-11-03 17:00:00 15.2 12 Sudoeste 25 Sudoeste 0 917.6 -0.9 57
2017-11-03 16:00:00 15.1 8 Sudoeste 23 Sudoeste 0 917.8 -1.1 63
2017-11-03 15:00:00 15.2 13 Sudoeste 28 Sudoeste 0 918.1 -1.4 62
2017-11-03 14:00:00 14.6 11 Sudoeste 33 Sudoeste 0 918.5 -1.2 66
2017-11-03 13:00:00 13.7 12 Sudoeste 24 Sudoeste 0 918.9 -0.7 72
2017-11-03 12:00:00 12.2 11 Sudoeste 26 Sudoeste 0 919.5 0.1 81
2017-11-03 11:00:00 11.9 13 Sudoeste 27 Sudoeste 0 919.7 0.8 81
2017-11-03 10:00:00 12.1 8 Sur 20 Sudoeste 0 919.6 1.4 92
2017-11-03 09:00:00 10 4 Sur 9 Sudoeste 0 919.4 0.1 96
2017-11-03 08:00:00 9.4 3 Sudoeste 7 Sur 0 918.9 0.1 95
2017-11-03 07:00:00 9.7 0 Calma 22 Sudoeste 2 918.2 -1 94
2017-11-03 06:00:00 10.3 6 Sudoeste 33 Sudoeste 6.2 919.3 0.2 95
2017-11-03 05:00:00 10.9 4 Norte 17 Norte 6.2 918.8 -1.1 95
2017-11-03 04:00:00 11.1 2 Noroeste 14 Norte 1.4 919.2 -1.7 94
2017-11-03 03:00:00 11.4 13 Norte 30 Sudoeste 0.2 919.1 -2.2 92
2017-11-03 02:00:00 11.4 6 Norte 12 Norte 0.2 919.9 -1.7 93
2017-11-03 01:00:00 11.2 4 Norte 8 Nordeste 0 920.9 -0.7 93
2017-11-03 00:00:00 11.1 0 Calma 4 Sur 0 921.3 -0.1 92
2017-11-02 23:00:00 11.2 0 Calma 5 Norte 0 921.6 0 90
2017-11-02 22:00:00 12 2 Norte 9 Norte 0 921.6 0.3 84
2017-11-02 21:00:00 12.4 3 Noroeste 8 Oeste 0 921.4 0.4 84
2017-11-02 20:00:00 12.9 0 Calma 5 Noroeste 0 921.6 0.7 81
2017-11-02 19:00:00 13.7 3 Sudoeste 11 Sudoeste 0 921.3 0.2 75
2017-11-02 18:00:00 14.6 3 Sudoeste 13 Oeste 0 921 -0.4 72
2017-11-02 17:00:00 16.4 0 Calma 13 Sur 0 920.9 -1.1 61
2017-11-02 16:00:00 18.1 4 Sur 13 Sur 0 921.1 -1.6 53
2017-11-02 15:00:00 17.5 5 Sur 20 Sur 0 921.4 -2.2 54
2017-11-02 14:00:00 17.5 5 Sudoeste 19 Sudoeste 0 922 -1.7 55
2017-11-02 13:00:00 16.9 4 Oeste 13 Sudoeste 0 922.7 -1 56
2017-11-02 12:00:00 15.3 5 Sur 12 Sudoeste 0 923.6 0.2 58
2017-11-02 11:00:00 13.1 3 Sudeste 8 Sudeste 0 923.7 0.5 63
2017-11-02 10:00:00 11.2 3 Este 10 Nordeste 0 923.7 0.8 69
2017-11-02 09:00:00 6.6 3 Este 9 Nordeste 0 923.4 0.4 84
2017-11-02 08:00:00 4.1 3 Este 9 Nordeste 0 923.2 0.1 84
2017-11-02 07:00:00 4.6 0 Calma 7 Nordeste 0 922.9 -0.4 83
2017-11-02 06:00:00 5.9 2 Nordeste 6 Este 0 923 -0.6 83
2017-11-02 05:00:00 6.4 2 Nordeste 5 Nordeste 0 923.1 -0.6 79
2017-11-02 04:00:00 6.5 2 Norte 6 Nordeste 0 923.3 -0.9 78
2017-11-02 03:00:00 6.1 0 Calma 3 Este 0 923.6 -0.7 83
2017-11-02 02:00:00 6.6 2 Norte 4 Norte 0 923.7 -0.7 81
2017-11-02 01:00:00 6.6 0 Calma 4 Nordeste 0 924.2 -0.2 80
2017-11-02 00:00:00 6.8 0 Calma 10 Nordeste 0 924.3 0.2 77
2017-11-01 23:00:00 7.4 3 Nordeste 9 Nordeste 0 924.4 0.4 73
2017-11-01 22:00:00 7.4 3 Norte 13 Este 0 924.4 0.5 75
2017-11-01 21:00:00 7.6 0 Calma 15 Este 0 924.1 0.2 79
2017-11-01 20:00:00 8.5 0 Calma 5 Noroeste 0 924 0.2 76
2017-11-01 19:00:00 10.9 0 Calma 3 Norte 0 923.9 -0.1 68
2017-11-01 18:00:00 14.4 2 Norte 6 Sudoeste 0 923.9 -0.2 58
2017-11-01 17:00:00 17.8 3 Oeste 13 Sur 0 923.8 -1.1 41
2017-11-01 16:00:00 19.5 6 Sudoeste 21 Oeste 0 924 -1.5 35
2017-11-01 15:00:00 18.4 5 Oeste 21 Sudoeste 0 924.1 -2.2 37
2017-11-01 14:00:00 17.6 4 Noroeste 12 Oeste 0 924.9 -1.8 39
2017-11-01 13:00:00 17.4 4 Sudeste 12 Sudeste 0 925.5 -1.2 42
2017-11-01 12:00:00 14.9 2 Sur 10 Sur 0 926.3 -0.3 50
2017-11-01 11:00:00 12 3 Sudeste 10 Este 0 926.7 0.6 56
2017-11-01 10:00:00 8.1 3 Este 13 Nordeste 0 926.7 1 69
2017-11-01 09:00:00 1.6 2 Nordeste 9 Nordeste 0 926.6 1 96
2017-11-01 08:00:00 -1.3 2 Este 4 Este 0 926.1 0.6 96
2017-11-01 07:00:00 -1.1 2 Norte 5 Noroeste 0 925.7 0.1 96
2017-11-01 06:00:00 -1.4 0 Calma 2 Noroeste 0 925.6 -0.2 96
2017-11-01 05:00:00 -1.2 0 Calma 3 Noroeste 0 925.5 -0.5 96
2017-11-01 04:00:00 -0.7 0 Calma 5 Norte 0 925.6 -0.3 96
2017-11-01 03:00:00 -0.4 0 Calma 4 Norte 0 925.8 -0.2 96
2017-11-01 02:00:00 -0.5 0 Calma 4 Noroeste 0 926 -0.2 94
2017-11-01 01:00:00 0.7 2 Norte 4 Noroeste 0 925.9 0 94
2017-11-01 00:00:00 1.7 3 Norte 5 Noroeste 0 926 0.3 94
2017-10-31 23:00:00 1.9 2 Norte 4 Norte 0 926.2 0.8 92
2017-10-31 22:00:00 2.7 0 Calma 3 Oeste 0 925.9 0.7 86
2017-10-31 21:00:00 3.9 0 Calma 4 Noroeste 0 925.7 0.8 81
2017-10-31 20:00:00 6.2 2 Noroeste 3 Noroeste 0 925.4 0.6 79
2017-10-31 19:00:00 9 0 Calma 2 Noroeste 0 925.2 0.3 71
2017-10-31 18:00:00 13 0 Calma 14 Este 0 924.9 -0.1 58
2017-10-31 17:00:00 16.7 3 Sur 12 Sur 0 924.8 -0.7 41
2017-10-31 16:00:00 17.9 3 Sur 14 Sudeste 0 924.9 -1.1 38
2017-10-31 15:00:00 17.3 4 Sudeste 12 Sudeste 0 925 -1.9 38
2017-10-31 14:00:00 15.3 6 Este 16 Este 0 925.5 -1.9 41
2017-10-31 13:00:00 14.2 7 Sudeste 16 Nordeste 0 926 -1.5 43
2017-10-31 12:00:00 11.5 6 Este 18 Este 0 926.9 -0.3 53
2017-10-31 11:00:00 9.2 6 Nordeste 22 Nordeste 0 927.4 0.5 61
2017-10-31 10:00:00 6.5 8 Nordeste 23 Nordeste 0 927.5 1 74
2017-10-31 09:00:00 3.4 8 Nordeste 20 Nordeste 0 927.2 0.6 88
2017-10-31 08:00:00 0.9 4 Norte 14 Nordeste 0 926.9 0.5 95
2017-10-31 07:00:00 -0.3 2 Noroeste 8 Este 0 926.5 0.4 93
2017-10-31 06:00:00 0.9 3 Nordeste 15 Nordeste 0 926.6 -0.2 92
2017-10-31 05:00:00 1.7 4 Nordeste 22 Nordeste 0 926.4 -0.6 85
2017-10-31 04:00:00 2.5 10 Nordeste 22 Nordeste 0 926.1 -1.1 84
2017-10-31 03:00:00 3.1 4 Nordeste 17 Nordeste 0 926.8 -0.4 81
2017-10-31 02:00:00 3.7 8 Norte 22 Nordeste 0 927 -0.5 79
2017-10-31 01:00:00 4.6 10 Nordeste 24 Nordeste 0 927.2 -0.1 77
2017-10-31 00:00:00 5.4 8 Nordeste 34 Nordeste 0 927.2 0.4 76
2017-10-30 23:00:00 6.1 12 Nordeste 27 Nordeste 0 927.5 0.8 74
2017-10-30 22:00:00 7.2 17 Nordeste 41 Nordeste 0 927.3 0.8 73
2017-10-30 21:00:00 7.7 14 Nordeste 44 Nordeste 0 926.8 1.1 73
2017-10-30 20:00:00 8.7 16 Nordeste 38 Nordeste 0 926.7 1.3 71
2017-10-30 19:00:00 9.8 11 Nordeste 35 Este 0 926.5 1.2 71
2017-10-30 18:00:00 12 14 Nordeste 60 Norte 0 925.7 0.2 65
2017-10-30 17:00:00 14.5 16 Nordeste 41 Este 0 925.4 -0.4 58
2017-10-30 16:00:00 15.9 14 Nordeste 49 Nordeste 0 925.3 -0.9 53
2017-10-30 15:00:00 16.3 17 Nordeste 42 Nordeste 0 925.5 -1.5 52
2017-10-30 14:00:00 16.5 15 Nordeste 42 Nordeste 0 925.8 -1.2 52
2017-10-30 13:00:00 16.3 14 Nordeste 37 Nordeste 0 926.2 -1.2 53
2017-10-30 12:00:00 15.2 15 Nordeste 37 Nordeste 0 927 -0.3 58
2017-10-30 11:00:00 13.8 9 Nordeste 22 Este 0 927 0 64
2017-10-30 10:00:00 9.1 3 Noroeste 8 Norte 0 927.4 0.5 88
2017-10-30 09:00:00 2.9 5 Sudoeste 9 Sudoeste 0 927.3 0.3 97
2017-10-30 08:00:00 1.9 0 Calma 8 Sudoeste 0 927 -0.1 96
2017-10-30 07:00:00 2.6 0 Calma 9 Noroeste 0 926.9 -0.4 96
2017-10-30 06:00:00 2.6 3 Noroeste 8 Noroeste 0 927 -0.7 95
2017-10-30 05:00:00 3.3 2 Noroeste 9 Noroeste 0 927.1 -0.8 94
2017-10-30 04:00:00 4.3 3 Este 17 Nordeste 0 927.3 -1.1 94
2017-10-30 03:00:00 4.7 4 Norte 9 Este 0 927.7 -0.8 92
2017-10-30 02:00:00 7.2 4 Norte 15 Nordeste 0 927.9 -1.1 85
2017-10-30 01:00:00 7.2 6 Nordeste 19 Este 0 928.4 -0.8 86
2017-10-30 00:00:00 8.2 6 Nordeste 22 Nordeste 0 928.5 -0.6 82
2017-10-29 23:00:00 8 6 Norte 18 Este 0 929 -0.2 82
2017-10-29 22:00:00 9.4 6 Nordeste 36 Nordeste 0 929.2 0.1 79
2017-10-29 21:00:00 9.6 9 Nordeste 34 Nordeste 0 929.1 0.4 79
2017-10-29 20:00:00 9.9 10 Nordeste 32 Nordeste 0 929.2 0.4 78
2017-10-29 19:00:00 10.8 13 Este 43 Este 0 929.1 0.2 74
2017-10-29 18:00:00 12.6 12 Nordeste 39 Este 0 928.7 -0.2 66
2017-10-29 17:00:00 15.1 15 Este 41 Este 0 928.8 -0.6 56
2017-10-29 16:00:00 16.7 15 Nordeste 45 Este 0 928.9 -1.1 49
2017-10-29 15:00:00 18.7 14 Este 36 Nordeste 0 928.9 -2 32
2017-10-29 14:00:00 19 12 Este 34 Nordeste 0 929.4 -1.9 28
2017-10-29 13:00:00 18.6 10 Este 29 Nordeste 0 930 -1.4 25
2017-10-29 12:00:00 16 8 Nordeste 18 Nordeste 0 930.9 -0.5 39
2017-10-29 11:00:00 12.8 8 Este 25 Este 0 931.3 0.2 59
2017-10-29 10:00:00 10.3 9 Este 23 Este 0 931.4 0.6 72
2017-10-29 09:00:00 6.1 4 Este 12 Sudeste 0 931.4 0.4 89
2017-10-29 08:00:00 3.6 3 Norte 9 Nordeste 0 931.1 0.1 94
2017-10-29 07:00:00 2.4 4 Norte 15 Nordeste 0 930.8 -0.5 95
2017-10-29 06:00:00 1.3 2 Norte 8 Nordeste 0 931 -0.8 96
2017-10-29 05:00:00 1.7 3 Este 8 Norte 0 931 -1 95
2017-10-29 04:00:00 3.3 3 Noroeste 6 Nordeste 0 931.3 -1.1 95
2017-10-29 03:00:00 2.8 0 Calma 7 Nordeste 0 931.8 -0.8 93
2017-10-29 02:00:00 4.1 3 Noroeste 8 Nordeste 0 932 -1 91
2017-10-29 01:00:00 8 7 Nordeste 16 Nordeste 0 932.6 0.1 81
2017-10-29 00:00:00 8.4 4 Nordeste 16 Nordeste 0 933 0.2 77
2017-10-28 23:00:00 9.2 3 Nordeste 17 Nordeste 0 932.9 0.4 75
2017-10-28 22:00:00 10.2 6 Nordeste 18 Este 0 932.5 0.3 71
2017-10-28 21:00:00 11.2 8 Nordeste 24 Este 0 932.8 0.8 68
2017-10-28 20:00:00 12.8 8 Este 27 Nordeste 0 932.5 0.5 62
2017-10-28 19:00:00 15.1 10 Nordeste 42 Este 0 932.2 0.1 52
2017-10-28 18:00:00 17.5 12 Nordeste 31 Nordeste 0 932 -0.8 45
2017-10-28 17:00:00 18.2 13 Nordeste 39 Nordeste 0 932 -1.7 43
2017-10-28 16:00:00 18.3 14 Este 36 Este 0 932.1 -2.1 43
2017-10-28 15:00:00 17.9 14 Este 41 Nordeste 0 932.8 -1.7 45
2017-10-28 14:00:00 17.3 14 Nordeste 37 Nordeste 0 933.7 -1 49
2017-10-28 13:00:00 16.5 13 Nordeste 31 Nordeste 0 934.2 -0.8 53
2017-10-28 12:00:00 15 10 Nordeste 36 Nordeste 0 934.5 -0.4 59
2017-10-28 11:00:00 13.5 13 Nordeste 35 Nordeste 0 934.7 0.1 66
2017-10-28 10:00:00 11.2 7 Nordeste -- -- 0 935 0.6 76
2017-10-28 09:00:00 9 4 Este 15 Este 0 934.9 0.4 88
2017-10-28 08:00:00 9.3 8 Nordeste 24 Nordeste 0 934.6 -0.1 89
2017-10-28 07:00:00 8.8 9 Nordeste 24 Nordeste 0 934.4 -0.6 95
2017-10-28 06:00:00 2.9 3 Noroeste 8 Noroeste 0 934.5 -0.9 96
2017-10-28 05:00:00 2.7 0 Calma 4 Noroeste 0 934.7 -1.2 95
2017-10-28 04:00:00 3.2 2 Noroeste 4 Noroeste 0 935 -1.2 94
2017-10-28 03:00:00 4 2 Noroeste 5 Nordeste 0 935.4 -1 94
2017-10-28 02:00:00 4.4 2 Nordeste 5 Noroeste 0 935.9 -0.5 92
2017-10-28 01:00:00 5.3 2 Nordeste 4 Este 0 936.2 -0.2 91
2017-10-28 00:00:00 6.5 0 Calma 4 Noroeste 0 936.4 0.1 84
2017-10-27 23:00:00 8.8 2 Norte 13 Este 0 936.4 0.6 81
2017-10-27 22:00:00 11.7 3 Nordeste 12 Nordeste 0 936.4 1.2 75
2017-10-27 21:00:00 13.3 0 Calma 14 Este 0 936.3 1.4 66
2017-10-27 20:00:00 16.7 4 Nordeste 22 Sudeste 0 935.8 1 53
2017-10-27 19:00:00 20.4 7 Este 25 Nordeste 0 935.2 0.1 39
2017-10-27 18:00:00 24.1 10 Nordeste 24 Nordeste 0 934.9 -0.9 26
2017-10-27 17:00:00 25.9 3 Sudoeste 14 Sudoeste 0 934.8 -1.7 28
2017-10-27 16:00:00 24.8 3 Oeste 9 Noroeste 0 935.1 -2 28
2017-10-27 15:00:00 23.3 4 Nordeste 11 Noroeste 0 935.8 -1.5 31
2017-10-27 14:00:00 22.4 4 Sur 10 Sudoeste 0 936.5 -0.8 35
2017-10-27 13:00:00 20.5 5 Sudeste 12 Sudeste 0 937.1 0.1 40
2017-10-27 12:00:00 17.5 4 Este 10 Nordeste 0 937.3 0.8 50
2017-10-27 11:00:00 13 2 Nordeste 7 Nordeste 0 937.3 1.3 70
2017-10-27 10:00:00 6 0 Calma 3 Noroeste 0 937 1.2 95
2017-10-27 09:00:00 3.2 0 Calma 4 Noroeste 0 936.5 1 94
2017-10-27 08:00:00 3.5 0 Calma 7 Norte 0 936 0.7 94
2017-10-27 07:00:00 3.6 0 Calma 4 Norte 0 935.8 0.2 93
2017-10-27 06:00:00 3.9 0 Calma 4 Norte 0 935.5 -0.2 92
2017-10-27 05:00:00 4.2 2 Norte 3 Norte 0 935.3 -0.5 93
2017-10-27 04:00:00 4.5 2 Norte 4 Noroeste 0 935.6 -0.1 91
2017-10-27 03:00:00 5.1 2 Norte 4 Noroeste 0 935.7 0.1 90
2017-10-27 02:00:00 5.9 2 Noroeste 5 Sur 0 935.8 0.5 82
2017-10-27 01:00:00 6.4 0 Calma 3 Norte 0 935.7 0.9 84
2017-10-27 00:00:00 7.1 0 Calma 4 Oeste 0 935.6 1.1 78
2017-10-26 23:00:00 8 0 Calma 4 Nordeste 0 935.3 1.4 80
2017-10-26 22:00:00 9.3 0 Calma 3 Noroeste 0 934.8 1.7 71
2017-10-26 21:00:00 11.4 0 Calma 3 Oeste 0 934.5 1.9 65
2017-10-26 20:00:00 14.4 0 Calma 6 Oeste 0 933.9 1.1 59
2017-10-26 19:00:00 19.3 2 Sudoeste 15 Oeste 0 933.1 0.2 38
2017-10-26 18:00:00 23.4 8 Sudoeste 23 Sudoeste 0 932.6 -0.7 26
2017-10-26 17:00:00 24.4 13 Sudoeste 28 Sudoeste 0 932.8 -0.9 24
2017-10-26 16:00:00 24.5 7 Sudoeste 27 Sur 0 932.9 -1.1 25
2017-10-26 15:00:00 23.9 8 Sudoeste 22 Sudoeste 0 933.3 -0.6 26
2017-10-26 14:00:00 22.2 5 Sudoeste 14 Sudoeste 0 933.7 0.1 28
2017-10-26 13:00:00 20.3 5 Sur 12 Sudoeste 0 934 0.8 30
2017-10-26 12:00:00 17.1 4 Sudeste 8 Sudeste 0 933.9 1.3 36
2017-10-26 11:00:00 12.3 2 Este 8 Nordeste 0 933.6 1.5 51
2017-10-26 10:00:00 4.7 0 Calma 5 Nordeste 0 933.2 1.6 82
2017-10-26 09:00:00 1.8 3 Norte 5 Noroeste 0 932.6 1.3 83
2017-10-26 08:00:00 1.2 0 Calma 4 Norte 0 932.1 1.1 92
2017-10-26 07:00:00 1.6 0 Calma 4 Norte 0 931.6 0.4 92
2017-10-26 06:00:00 2.3 0 Calma 5 Norte 0 931.3 0.5 93
2017-10-26 05:00:00 2.6 2 Noroeste 3 Noroeste 0 931 0.3 92
2017-10-26 04:00:00 2.8 0 Calma 3 Nordeste 0 931.2 0.5 91
2017-10-26 03:00:00 3.8 0 Calma 7 Noroeste 0 930.8 0.2 87
2017-10-26 02:00:00 4.6 0 Calma 5 Norte 0 930.7 0.3 83
2017-10-26 01:00:00 5.5 0 Calma 5 Sudeste 0 930.7 0.7 83
2017-10-26 00:00:00 6.2 0 Calma 4 Noroeste 0 930.6 0.9 82
2017-10-25 23:00:00 7.2 0 Calma 3 Norte 0 930.4 1.1 73
2017-10-25 22:00:00 8.5 2 Norte 5 Noroeste 0 930 1 77
2017-10-25 21:00:00 10.2 3 Norte 5 Noroeste 0 929.7 0.9 72
2017-10-25 20:00:00 13.8 2 Norte 3 Norte 0 929.3 0.6 59
2017-10-25 19:00:00 18.7 0 Calma 9 Sudoeste 0 929 0.2 45
2017-10-25 18:00:00 23.8 4 Sudoeste 15 Sur 0 928.8 -0.4 23
2017-10-25 17:00:00 25.3 4 Sur 14 Sudoeste 0 928.7 -1.1 23
2017-10-25 16:00:00 24.8 5 Sudoeste 13 Sudoeste 0 928.8 -1.4 22
2017-10-25 15:00:00 24.3 4 Sur 14 Sudoeste 0 929.2 -1.1 24
2017-10-25 14:00:00 22.6 5 Sur 14 Sudeste 0 929.8 -0.6 26
2017-10-25 13:00:00 20.8 4 Sur 11 Sudeste 0 930.2 0.1 28
2017-10-25 12:00:00 17.4 4 Este 13 Sudeste 0 930.3 0.8 36
2017-10-25 11:00:00 13.7 3 Este 11 Norte 0 930.4 1.1 47
2017-10-25 10:00:00 6.2 3 Norte 16 Este 0 930.1 0.9 77
2017-10-25 09:00:00 2.2 3 Norte 4 Norte 0 929.5 0.4 92
2017-10-25 08:00:00 2 0 Calma 6 Noroeste 0 929.3 -0.2 87
2017-10-25 07:00:00 2.4 0 Calma 4 Norte 0 929.2 -0.5 90
2017-10-25 06:00:00 2.5 0 Calma 5 Noroeste 0 929.1 -0.6 90
2017-10-25 05:00:00 3.3 3 Noroeste 7 Noroeste 0 929.5 -0.1 86
2017-10-25 04:00:00 3.8 3 Norte 4 Norte 0 929.7 0.2 89
2017-10-25 03:00:00 3.8 2 Norte 4 Noroeste 0 929.7 0.2 86
2017-10-25 02:00:00 4.6 0 Calma 4 Norte 0 929.6 0.2 80
2017-10-25 01:00:00 5.3 0 Calma 3 Oeste 0 929.5 0.2 79
2017-10-25 00:00:00 6.3 2 Nordeste 4 Norte 0 929.5 0.4 78